This is the latest recevied weather packets stored in our database for station/object ED2YAA-10. If no packets are shown the sender has not sent any weather packets the latest 10 day(s).
| Time | Temp. | Humidity | Pressure | Rain* | Wind** | Luminosity | Snow |
|---|---|---|---|---|---|---|---|
| 1777991205 | 22.22° C | 35% | 926.4 hPa | - | - | - | - |
| 1777989397 | 22.78° C | 34% | 926.4 hPa | - | - | - | - |
| 1777987607 | 27.22° C | 30% | 926.3 hPa | - | - | - | - |
| 1777986697 | 16.67° C | 44% | 926.3 hPa | - | - | - | - |
| 1777985808 | 23.33° C | 35% | 926.4 hPa | - | - | - | - |
| 1777984901 | 22.78° C | 35% | 926.3 hPa | - | - | - | - |
| 1777983106 | 22.22° C | 34% | 926.2 hPa | - | - | - | - |
| 1777982198 | 22.22° C | 34% | 926.1 hPa | - | - | - | - |
| 1777981309 | 22.22° C | 34% | 926.1 hPa | - | - | - | - |
| 1777979496 | 22.78° C | 35% | 926.4 hPa | - | - | - | - |
| 1777975896 | 21.11° C | 37% | 926.5 hPa | - | - | - | - |
| 1777974998 | 20.56° C | 38% | 926.3 hPa | - | - | - | - |
| 1777973199 | 19.44° C | 39% | 926.3 hPa | - | - | - | - |
| 1777972299 | 19.44° C | 39% | 926.3 hPa | - | - | - | - |
| 1777971400 | 18.89° C | 39% | 926.3 hPa | - | - | - | - |
| 1777970495 | 18.89° C | 39% | 926.4 hPa | - | - | - | - |
| 1777968697 | 18.33° C | 40% | 926.3 hPa | - | - | - | - |
| 1777967795 | 18.33° C | 40% | 926.3 hPa | - | - | - | - |
| 1777966896 | 18.33° C | 40% | 926.3 hPa | - | - | - | - |
| 1777965985 | 17.78° C | 40% | 926.2 hPa | - | - | - | - |
| 1777965085 | 17.78° C | 40% | 926.3 hPa | - | - | - | - |
| 1777964186 | 17.78° C | 40% | 926.2 hPa | - | - | - | - |
| 1777963286 | 17.78° C | 41% | 926.1 hPa | - | - | - | - |
| 1777962386 | 17.22° C | 41% | 926 hPa | - | - | - | - |
| 1777961486 | 17.22° C | 40% | 925.8 hPa | - | - | - | - |
* Rain since midnight (hover to see other rain measurements)
** Current wind speed in m/s (hover to see current wind gust speed)